sensor_id;sensor_type;location;lat;lon;timestamp;pressure;altitude;pressure_sealevel;temperature;humidity
72110;BME280;59983;52.010;5.420;2022-08-21T00:02:01;101762.13;;;15.24;79.83
72110;BME280;59983;52.010;5.420;2022-08-21T00:04:28;101763.09;;;15.32;79.90
72110;BME280;59983;52.010;5.420;2022-08-21T00:06:56;101763.75;;;15.44;80.32
72110;BME280;59983;52.010;5.420;2022-08-21T00:09:23;101763.16;;;15.51;80.15
72110;BME280;59983;52.010;5.420;2022-08-21T00:11:50;101765.00;;;15.47;80.08
72110;BME280;59983;52.010;5.420;2022-08-21T00:14:16;101754.28;;;15.38;80.14
72110;BME280;59983;52.010;5.420;2022-08-21T00:16:43;101759.03;;;15.41;79.78
72110;BME280;59983;52.010;5.420;2022-08-21T00:19:10;101760.59;;;15.42;79.48
72110;BME280;59983;52.010;5.420;2022-08-21T00:21:36;101758.47;;;15.36;79.41
72110;BME280;59983;52.010;5.420;2022-08-21T00:24:03;101763.09;;;15.32;79.92
72110;BME280;59983;52.010;5.420;2022-08-21T00:26:30;101759.91;;;15.29;79.86
72110;BME280;59983;52.010;5.420;2022-08-21T00:28:56;101759.47;;;15.27;80.24
72110;BME280;59983;52.010;5.420;2022-08-21T00:31:24;101760.44;;;15.35;80.36
72110;BME280;59983;52.010;5.420;2022-08-21T00:33:51;101765.28;;;15.42;80.44
72110;BME280;59983;52.010;5.420;2022-08-21T00:36:24;101753.75;;;15.33;80.29
72110;BME280;59983;52.010;5.420;2022-08-21T00:38:51;101754.16;;;15.35;80.77
72110;BME280;59983;52.010;5.420;2022-08-21T00:41:17;101762.19;;;15.43;80.78
72110;BME280;59983;52.010;5.420;2022-08-21T00:44:05;101747.81;;;15.46;80.58
72110;BME280;59983;52.010;5.420;2022-08-21T00:46:32;101754.53;;;15.33;79.77
72110;BME280;59983;52.010;5.420;2022-08-21T00:48:58;101754.28;;;15.22;79.94
72110;BME280;59983;52.010;5.420;2022-08-21T00:51:30;101755.69;;;15.32;80.75
72110;BME280;59983;52.010;5.420;2022-08-21T00:54:03;101754.53;;;15.33;80.69
72110;BME280;59983;52.010;5.420;2022-08-21T00:56:30;101757.34;;;15.37;80.86
72110;BME280;59983;52.010;5.420;2022-08-21T00:58:57;101753.53;;;15.41;80.70
72110;BME280;59983;52.010;5.420;2022-08-21T01:01:25;101750.88;;;15.45;80.85
72110;BME280;59983;52.010;5.420;2022-08-21T01:03:51;101754.16;;;15.50;80.80
72110;BME280;59983;52.010;5.420;2022-08-21T01:06:18;101752.72;;;15.56;80.48
72110;BME280;59983;52.010;5.420;2022-08-21T01:08:44;101752.22;;;15.51;80.60
72110;BME280;59983;52.010;5.420;2022-08-21T01:11:14;101750.97;;;15.48;80.77
72110;BME280;59983;52.010;5.420;2022-08-21T01:13:41;101748.94;;;15.45;80.36
72110;BME280;59983;52.010;5.420;2022-08-21T01:16:14;101744.03;;;15.35;79.64
72110;BME280;59983;52.010;5.420;2022-08-21T01:18:42;101739.66;;;15.15;78.78
72110;BME280;59983;52.010;5.420;2022-08-21T01:21:19;101737.28;;;15.13;78.90
72110;BME280;59983;52.010;5.420;2022-08-21T01:23:50;101743.44;;;15.10;79.24
72110;BME280;59983;52.010;5.420;2022-08-21T01:26:20;101743.53;;;15.14;79.67
72110;BME280;59983;52.010;5.420;2022-08-21T01:28:54;101743.09;;;15.12;80.22
72110;BME280;59983;52.010;5.420;2022-08-21T01:31:26;101750.84;;;15.10;80.10
72110;BME280;59983;52.010;5.420;2022-08-21T01:33:54;101758.09;;;15.02;79.39
72110;BME280;59983;52.010;5.420;2022-08-21T01:36:22;101752.88;;;14.97;79.36
72110;BME280;59983;52.010;5.420;2022-08-21T01:38:49;101751.66;;;14.94;79.48
72110;BME280;59983;52.010;5.420;2022-08-21T01:41:15;101746.88;;;14.91;79.85
72110;BME280;59983;52.010;5.420;2022-08-21T01:43:43;101746.50;;;14.93;80.11
72110;BME280;59983;52.010;5.420;2022-08-21T01:46:10;101739.13;;;14.93;80.03
72110;BME280;59983;52.010;5.420;2022-08-21T01:48:37;101739.81;;;14.90;80.48
72110;BME280;59983;52.010;5.420;2022-08-21T01:51:05;101741.31;;;14.88;80.56
72110;BME280;59983;52.010;5.420;2022-08-21T01:53:33;101738.22;;;14.89;80.55
72110;BME280;59983;52.010;5.420;2022-08-21T01:56:04;101737.69;;;14.99;80.74
72110;BME280;59983;52.010;5.420;2022-08-21T01:58:38;101740.63;;;15.07;80.91
72110;BME280;59983;52.010;5.420;2022-08-21T02:01:04;101745.91;;;15.15;80.82
72110;BME280;59983;52.010;5.420;2022-08-21T02:03:31;101739.66;;;15.15;80.85
72110;BME280;59983;52.010;5.420;2022-08-21T02:06:03;101735.75;;;15.16;80.62
72110;BME280;59983;52.010;5.420;2022-08-21T02:08:30;101732.50;;;15.10;80.27
72110;BME280;59983;52.010;5.420;2022-08-21T02:10:57;101735.94;;;15.07;80.49
72110;BME280;59983;52.010;5.420;2022-08-21T02:13:23;101728.28;;;15.13;80.70
72110;BME280;59983;52.010;5.420;2022-08-21T02:15:50;101731.81;;;15.13;80.84
72110;BME280;59983;52.010;5.420;2022-08-21T02:18:16;101736.19;;;15.18;80.98
72110;BME280;59983;52.010;5.420;2022-08-21T02:20:47;101723.06;;;15.23;80.90
72110;BME280;59983;52.010;5.420;2022-08-21T02:23:21;101727.81;;;15.26;81.15
72110;BME280;59983;52.010;5.420;2022-08-21T02:25:52;101723.06;;;15.23;80.83
72110;BME280;59983;52.010;5.420;2022-08-21T02:28:19;101728.19;;;15.09;80.57
72110;BME280;59983;52.010;5.420;2022-08-21T02:30:48;101722.88;;;15.00;80.61
72110;BME280;59983;52.010;5.420;2022-08-21T02:33:15;101713.84;;;14.96;80.48
72110;BME280;59983;52.010;5.420;2022-08-21T02:35:44;101714.53;;;14.93;80.29
72110;BME280;59983;52.010;5.420;2022-08-21T02:38:14;101716.13;;;14.94;79.84
72110;BME280;59983;52.010;5.420;2022-08-21T02:40:44;101715.41;;;14.97;80.25
72110;BME280;59983;52.010;5.420;2022-08-21T02:43:17;101713.28;;;15.07;80.53
72110;BME280;59983;52.010;5.420;2022-08-21T02:45:45;101709.41;;;15.08;81.24
72110;BME280;59983;52.010;5.420;2022-08-21T02:48:15;101708.78;;;15.14;81.44
72110;BME280;59983;52.010;5.420;2022-08-21T02:50:46;101704.13;;;15.15;81.55
72110;BME280;59983;52.010;5.420;2022-08-21T02:53:15;101703.69;;;15.13;81.77
72110;BME280;59983;52.010;5.420;2022-08-21T02:55:47;101699.44;;;15.15;81.60
72110;BME280;59983;52.010;5.420;2022-08-21T02:58:17;101704.19;;;15.18;81.28
72110;BME280;59983;52.010;5.420;2022-08-21T03:00:44;101701.81;;;15.17;81.28
72110;BME280;59983;52.010;5.420;2022-08-21T03:03:11;101708.50;;;15.19;81.11
72110;BME280;59983;52.010;5.420;2022-08-21T03:05:38;101705.69;;;15.16;81.44
72110;BME280;59983;52.010;5.420;2022-08-21T03:08:08;101699.09;;;15.17;81.57
72110;BME280;59983;52.010;5.420;2022-08-21T03:10:39;101702.25;;;15.19;81.76
72110;BME280;59983;52.010;5.420;2022-08-21T03:13:07;101701.81;;;15.17;81.85
72110;BME280;59983;52.010;5.420;2022-08-21T03:15:35;101693.00;;;15.23;81.82
72110;BME280;59983;52.010;5.420;2022-08-21T03:18:03;101694.22;;;15.26;81.74
72110;BME280;59983;52.010;5.420;2022-08-21T03:20:31;101688.59;;;15.19;81.54
72110;BME280;59983;52.010;5.420;2022-08-21T03:23:00;101694.34;;;15.14;81.73
72110;BME280;59983;52.010;5.420;2022-08-21T03:25:28;101694.69;;;15.12;81.95
72110;BME280;59983;52.010;5.420;2022-08-21T03:28:11;101692.47;;;15.18;81.96
72110;BME280;59983;52.010;5.420;2022-08-21T03:30:43;101691.78;;;15.21;81.86
72110;BME280;59983;52.010;5.420;2022-08-21T03:33:11;101690.19;;;15.20;81.35
72110;BME280;59983;52.010;5.420;2022-08-21T03:35:45;101685.72;;;15.12;81.96
72110;BME280;59983;52.010;5.420;2022-08-21T03:38:12;101680.50;;;15.07;82.09
72110;BME280;59983;52.010;5.420;2022-08-21T03:40:40;101682.28;;;14.99;82.18
72110;BME280;59983;52.010;5.420;2022-08-21T03:43:07;101680.31;;;14.99;81.95
72110;BME280;59983;52.010;5.420;2022-08-21T03:45:36;101671.97;;;14.92;82.00
72110;BME280;59983;52.010;5.420;2022-08-21T03:48:04;101675.03;;;14.91;81.65
72110;BME280;59983;52.010;5.420;2022-08-21T03:50:33;101678.69;;;14.95;81.63
72110;BME280;59983;52.010;5.420;2022-08-21T03:53:06;101678.03;;;15.01;81.50
72110;BME280;59983;52.010;5.420;2022-08-21T03:55:32;101677.22;;;15.01;81.81
72110;BME280;59983;52.010;5.420;2022-08-21T03:57:59;101675.66;;;15.00;81.79
72110;BME280;59983;52.010;5.420;2022-08-21T04:00:42;101678.50;;;15.04;81.98
72110;BME280;59983;52.010;5.420;2022-08-21T04:03:09;101687.13;;;15.06;81.99
72110;BME280;59983;52.010;5.420;2022-08-21T04:05:35;101684.75;;;15.04;81.85
72110;BME280;59983;52.010;5.420;2022-08-21T04:08:04;101687.31;;;14.97;81.69
72110;BME280;59983;52.010;5.420;2022-08-21T04:10:34;101680.69;;;14.98;81.46
72110;BME280;59983;52.010;5.420;2022-08-21T04:13:01;101686.34;;;14.89;81.99
72110;BME280;59983;52.010;5.420;2022-08-21T04:15:28;101691.72;;;14.86;81.98
72110;BME280;59983;52.010;5.420;2022-08-21T04:17:55;101687.47;;;14.88;81.78
72110;BME280;59983;52.010;5.420;2022-08-21T04:20:22;101682.09;;;14.92;82.12
72110;BME280;59983;52.010;5.420;2022-08-21T04:22:49;101689.06;;;14.89;82.19
72110;BME280;59983;52.010;5.420;2022-08-21T04:25:19;101690.94;;;14.85;82.27
72110;BME280;59983;52.010;5.420;2022-08-21T04:27:47;101695.25;;;14.86;82.37
72110;BME280;59983;52.010;5.420;2022-08-21T04:30:14;101689.41;;;14.88;82.28
72110;BME280;59983;52.010;5.420;2022-08-21T04:32:43;101684.94;;;14.95;81.82
72110;BME280;59983;52.010;5.420;2022-08-21T04:35:11;101677.88;;;14.94;81.63
72110;BME280;59983;52.010;5.420;2022-08-21T04:37:39;101693.19;;;14.83;81.31
72110;BME280;59983;52.010;5.420;2022-08-21T04:40:09;101684.75;;;14.72;79.96
72110;BME280;59983;52.010;5.420;2022-08-21T04:42:56;101692.75;;;14.50;79.61
72110;BME280;59983;52.010;5.420;2022-08-21T04:45:32;101680.19;;;14.33;78.81
72110;BME280;59983;52.010;5.420;2022-08-21T04:48:00;101692.84;;;14.25;79.32
72110;BME280;59983;52.010;5.420;2022-08-21T04:50:34;101687.75;;;14.24;79.79
72110;BME280;59983;52.010;5.420;2022-08-21T04:53:05;101683.88;;;14.25;79.75
72110;BME280;59983;52.010;5.420;2022-08-21T04:55:31;101691.72;;;14.26;80.18
72110;BME280;59983;52.010;5.420;2022-08-21T04:57:59;101692.78;;;14.37;80.85
72110;BME280;59983;52.010;5.420;2022-08-21T05:00:25;101688.22;;;14.41;80.64
72110;BME280;59983;52.010;5.420;2022-08-21T05:02:53;101686.19;;;14.38;80.37
72110;BME280;59983;52.010;5.420;2022-08-21T05:05:27;101689.63;;;14.35;80.68
72110;BME280;59983;52.010;5.420;2022-08-21T05:07:56;101690.59;;;14.43;80.95
72110;BME280;59983;52.010;5.420;2022-08-21T05:10:25;101690.81;;;14.50;80.70
72110;BME280;59983;52.010;5.420;2022-08-21T05:12:52;101695.28;;;14.42;80.81
72110;BME280;59983;52.010;5.420;2022-08-21T05:15:19;101706.19;;;14.42;80.97
72110;BME280;59983;52.010;5.420;2022-08-21T05:17:45;101706.88;;;14.39;80.33
72110;BME280;59983;52.010;5.420;2022-08-21T05:20:25;101713.97;;;14.28;79.44
72110;BME280;59983;52.010;5.420;2022-08-21T05:22:53;101724.03;;;14.24;79.77
72110;BME280;59983;52.010;5.420;2022-08-21T05:25:20;101723.66;;;14.26;80.20
72110;BME280;59983;52.010;5.420;2022-08-21T05:27:48;101721.50;;;14.31;80.81
72110;BME280;59983;52.010;5.420;2022-08-21T05:30:18;101725.28;;;14.42;81.45
72110;BME280;59983;52.010;5.420;2022-08-21T05:32:45;101720.84;;;14.50;81.86
72110;BME280;59983;52.010;5.420;2022-08-21T05:35:13;101724.72;;;14.49;82.10
72110;BME280;59983;52.010;5.420;2022-08-21T05:37:40;101723.59;;;14.50;82.22
72110;BME280;59983;52.010;5.420;2022-08-21T05:40:07;101727.19;;;14.54;82.19
72110;BME280;59983;52.010;5.420;2022-08-21T05:42:49;101720.22;;;14.57;82.45
72110;BME280;59983;52.010;5.420;2022-08-21T05:45:21;101724.13;;;14.71;82.68
72110;BME280;59983;52.010;5.420;2022-08-21T05:48:20;101724.03;;;14.99;82.44
72110;BME280;59983;52.010;5.420;2022-08-21T05:50:48;101718.66;;;15.19;82.18
72110;BME280;59983;52.010;5.420;2022-08-21T05:53:16;101723.66;;;15.33;82.21
72110;BME280;59983;52.010;5.420;2022-08-21T05:55:44;101723.47;;;15.41;82.09
72110;BME280;59983;52.010;5.420;2022-08-21T05:58:19;101724.69;;;15.44;82.22
72110;BME280;59983;52.010;5.420;2022-08-21T06:00:48;101719.91;;;15.56;82.20
72110;BME280;59983;52.010;5.420;2022-08-21T06:03:23;101715.44;;;15.64;82.07
72110;BME280;59983;52.010;5.420;2022-08-21T06:05:51;101715.13;;;15.69;82.16
72110;BME280;59983;52.010;5.420;2022-08-21T06:08:18;101720.41;;;15.78;82.15
72110;BME280;59983;52.010;5.420;2022-08-21T06:10:46;101721.28;;;15.82;82.57
72110;BME280;59983;52.010;5.420;2022-08-21T06:13:14;101713.13;;;15.85;82.82
72110;BME280;59983;52.010;5.420;2022-08-21T06:15:41;101718.66;;;15.89;82.99
72110;BME280;59983;52.010;5.420;2022-08-21T06:18:08;101724.66;;;15.95;83.26
72110;BME280;59983;52.010;5.420;2022-08-21T06:20:35;101724.28;;;15.96;83.56
72110;BME280;59983;52.010;5.420;2022-08-21T06:23:02;101725.97;;;16.01;84.00
72110;BME280;59983;52.010;5.420;2022-08-21T06:25:29;101717.44;;;16.06;83.76
72110;BME280;59983;52.010;5.420;2022-08-21T06:28:05;101717.53;;;16.09;83.79
72110;BME280;59983;52.010;5.420;2022-08-21T06:30:32;101716.88;;;16.16;84.63
72110;BME280;59983;52.010;5.420;2022-08-21T06:32:59;101716.94;;;16.20;84.19
72110;BME280;59983;52.010;5.420;2022-08-21T06:35:26;101719.69;;;16.20;83.99
72110;BME280;59983;52.010;5.420;2022-08-21T06:37:56;101721.31;;;16.24;84.25
72110;BME280;59983;52.010;5.420;2022-08-21T06:40:23;101715.84;;;16.24;84.42
72110;BME280;59983;52.010;5.420;2022-08-21T06:42:50;101727.38;;;16.33;84.32
72110;BME280;59983;52.010;5.420;2022-08-21T06:45:17;101722.03;;;16.40;84.31
72110;BME280;59983;52.010;5.420;2022-08-21T06:47:43;101725.66;;;16.45;84.10
72110;BME280;59983;52.010;5.420;2022-08-21T06:50:10;101723.00;;;16.52;84.06
72110;BME280;59983;52.010;5.420;2022-08-21T06:52:37;101725.41;;;16.53;84.41
72110;BME280;59983;52.010;5.420;2022-08-21T06:55:09;101722.00;;;16.60;84.77
72110;BME280;59983;52.010;5.420;2022-08-21T06:57:35;101722.56;;;16.69;84.66
72110;BME280;59983;52.010;5.420;2022-08-21T07:00:06;101718.47;;;16.79;84.77
72110;BME280;59983;52.010;5.420;2022-08-21T07:02:33;101720.09;;;16.83;84.62
72110;BME280;59983;52.010;5.420;2022-08-21T07:05:00;101724.91;;;16.90;84.18
72110;BME280;59983;52.010;5.420;2022-08-21T07:07:43;101724.28;;;17.00;84.21
72110;BME280;59983;52.010;5.420;2022-08-21T07:10:09;101713.84;;;17.09;84.74
72110;BME280;59983;52.010;5.420;2022-08-21T07:12:48;101730.03;;;17.18;85.11
72110;BME280;59983;52.010;5.420;2022-08-21T07:15:16;101717.63;;;17.24;84.96
72110;BME280;59983;52.010;5.420;2022-08-21T07:17:42;101708.25;;;17.28;84.60
72110;BME280;59983;52.010;5.420;2022-08-21T07:20:09;101710.75;;;17.37;84.13
72110;BME280;59983;52.010;5.420;2022-08-21T07:22:40;101709.31;;;17.47;84.04
72110;BME280;59983;52.010;5.420;2022-08-21T07:25:07;101716.09;;;17.56;84.26
72110;BME280;59983;52.010;5.420;2022-08-21T07:27:34;101712.69;;;17.63;83.46
72110;BME280;59983;52.010;5.420;2022-08-21T07:30:01;101709.19;;;17.66;83.02
72110;BME280;59983;52.010;5.420;2022-08-21T07:32:27;101714.38;;;17.71;82.75
72110;BME280;59983;52.010;5.420;2022-08-21T07:34:54;101714.91;;;17.80;82.76
72110;BME280;59983;52.010;5.420;2022-08-21T07:37:20;101708.38;;;17.92;82.72
72110;BME280;59983;52.010;5.420;2022-08-21T07:39:47;101706.56;;;18.03;83.06
72110;BME280;59983;52.010;5.420;2022-08-21T07:42:15;101707.56;;;18.25;82.51
72110;BME280;59983;52.010;5.420;2022-08-21T07:44:42;101715.47;;;18.30;81.03
72110;BME280;59983;52.010;5.420;2022-08-21T07:47:09;101714.69;;;18.30;81.21
72110;BME280;59983;52.010;5.420;2022-08-21T07:49:35;101711.94;;;18.30;80.93
72110;BME280;59983;52.010;5.420;2022-08-21T07:52:02;101715.47;;;18.30;82.40
72110;BME280;59983;52.010;5.420;2022-08-21T07:54:29;101714.41;;;18.42;80.81
72110;BME280;59983;52.010;5.420;2022-08-21T07:57:00;101713.81;;;18.59;81.71
72110;BME280;59983;52.010;5.420;2022-08-21T07:59:27;101711.97;;;18.71;80.07
72110;BME280;59983;52.010;5.420;2022-08-21T08:01:53;101714.78;;;18.78;80.04
72110;BME280;59983;52.010;5.420;2022-08-21T08:04:20;101721.53;;;18.87;80.43
72110;BME280;59983;52.010;5.420;2022-08-21T08:06:51;101720.44;;;18.95;79.08
72110;BME280;59983;52.010;5.420;2022-08-21T08:09:18;101714.94;;;18.95;79.47
72110;BME280;59983;52.010;5.420;2022-08-21T08:11:44;101710.69;;;19.05;79.28
72110;BME280;59983;52.010;5.420;2022-08-21T08:14:11;101701.69;;;19.08;79.77
72110;BME280;59983;52.010;5.420;2022-08-21T08:16:38;101706.09;;;19.23;80.03
72110;BME280;59983;52.010;5.420;2022-08-21T08:19:04;101699.91;;;19.37;78.73
72110;BME280;59983;52.010;5.420;2022-08-21T08:21:31;101699.53;;;19.42;77.84
72110;BME280;59983;52.010;5.420;2022-08-21T08:24:00;101689.75;;;19.45;77.23
72110;BME280;59983;52.010;5.420;2022-08-21T08:26:44;101693.41;;;19.63;77.35
72110;BME280;59983;52.010;5.420;2022-08-21T08:29:18;101687.13;;;19.70;78.32
72110;BME280;59983;52.010;5.420;2022-08-21T08:31:45;101696.22;;;19.81;76.76
72110;BME280;59983;52.010;5.420;2022-08-21T08:34:11;101701.38;;;19.93;77.61
72110;BME280;59983;52.010;5.420;2022-08-21T08:36:50;101696.28;;;20.02;76.04
72110;BME280;59983;52.010;5.420;2022-08-21T08:39:16;101690.81;;;20.09;75.38
72110;BME280;59983;52.010;5.420;2022-08-21T08:42:05;101697.53;;;20.23;76.22
72110;BME280;59983;52.010;5.420;2022-08-21T08:44:57;101707.41;;;20.38;75.09
72110;BME280;59983;52.010;5.420;2022-08-21T08:47:27;101702.34;;;20.44;75.95
72110;BME280;59983;52.010;5.420;2022-08-21T08:52:36;101700.41;;;20.58;74.31
72110;BME280;59983;52.010;5.420;2022-08-21T08:55:19;101698.44;;;20.70;73.46
72110;BME280;59983;52.010;5.420;2022-08-21T08:57:53;101693.31;;;20.79;72.52
72110;BME280;59983;52.010;5.420;2022-08-21T09:00:22;101691.31;;;20.90;74.47
72110;BME280;59983;52.010;5.420;2022-08-21T09:02:54;101690.53;;;21.07;71.97
72110;BME280;59983;52.010;5.420;2022-08-21T09:05:57;101688.94;;;21.10;71.14
72110;BME280;59983;52.010;5.420;2022-08-21T09:08:41;101693.25;;;21.36;71.34
72110;BME280;59983;52.010;5.420;2022-08-21T09:17:14;101687.38;;;21.09;69.43
72110;BME280;59983;52.010;5.420;2022-08-21T09:20:03;101684.63;;;20.87;70.23
72110;BME280;59983;52.010;5.420;2022-08-21T09:28:24;101675.09;;;21.49;67.97
72110;BME280;59983;52.010;5.420;2022-08-21T09:30:54;101679.41;;;21.57;67.02
72110;BME280;59983;52.010;5.420;2022-08-21T09:33:21;101678.69;;;21.32;66.96
72110;BME280;59983;52.010;5.420;2022-08-21T09:35:53;101688.94;;;21.06;68.00
72110;BME280;59983;52.010;5.420;2022-08-21T09:38:32;101685.81;;;21.29;69.22
72110;BME280;59983;52.010;5.420;2022-08-21T09:41:08;101682.19;;;21.43;67.53
72110;BME280;59983;52.010;5.420;2022-08-21T09:43:37;101694.41;;;21.49;67.70
72110;BME280;59983;52.010;5.420;2022-08-21T09:46:10;101696.72;;;21.61;67.68
72110;BME280;59983;52.010;5.420;2022-08-21T09:48:45;101696.72;;;21.68;63.85
72110;BME280;59983;52.010;5.420;2022-08-21T09:51:20;101691.16;;;21.72;65.30
72110;BME280;59983;52.010;5.420;2022-08-21T09:56:29;101691.84;;;21.97;66.23
72110;BME280;59983;52.010;5.420;2022-08-21T09:59:28;101703.69;;;21.98;65.73
72110;BME280;59983;52.010;5.420;2022-08-21T10:02:21;101686.34;;;21.94;65.88
72110;BME280;59983;52.010;5.420;2022-08-21T10:04:51;101683.63;;;21.87;64.49
72110;BME280;59983;52.010;5.420;2022-08-21T10:07:21;101681.72;;;21.69;67.30
72110;BME280;59983;52.010;5.420;2022-08-21T10:09:59;101685.19;;;21.91;65.50
72110;BME280;59983;52.010;5.420;2022-08-21T10:12:54;101681.56;;;22.01;66.95
72110;BME280;59983;52.010;5.420;2022-08-21T10:15:27;101681.50;;;22.16;64.35
72110;BME280;59983;52.010;5.420;2022-08-21T10:20:44;101696.84;;;22.27;63.90
72110;BME280;59983;52.010;5.420;2022-08-21T10:23:43;101681.00;;;22.31;65.10
72110;BME280;59983;52.010;5.420;2022-08-21T10:29:42;101677.75;;;22.44;65.64
72110;BME280;59983;52.010;5.420;2022-08-21T10:40:42;101668.53;;;22.61;64.27
72110;BME280;59983;52.010;5.420;2022-08-21T10:44:24;101662.97;;;22.68;60.35
72110;BME280;59983;52.010;5.420;2022-08-21T10:54:47;101658.72;;;22.56;61.91
72110;BME280;59983;52.010;5.420;2022-08-21T10:57:39;101666.66;;;22.51;63.47
72110;BME280;59983;52.010;5.420;2022-08-21T11:00:10;101651.25;;;22.50;61.67
72110;BME280;59983;52.010;5.420;2022-08-21T11:02:49;101652.16;;;22.36;59.98
72110;BME280;59983;52.010;5.420;2022-08-21T11:05:21;101656.94;;;22.32;62.00
72110;BME280;59983;52.010;5.420;2022-08-21T11:07:59;101653.81;;;22.23;63.07
72110;BME280;59983;52.010;5.420;2022-08-21T11:10:35;101646.78;;;22.18;62.12
72110;BME280;59983;52.010;5.420;2022-08-21T11:13:24;101645.84;;;22.36;62.63
72110;BME280;59983;52.010;5.420;2022-08-21T11:16:16;101652.81;;;22.51;62.62
72110;BME280;59983;52.010;5.420;2022-08-21T11:18:49;101641.31;;;22.59;61.45
72110;BME280;59983;52.010;5.420;2022-08-21T11:21:42;101640.09;;;22.60;61.29
72110;BME280;59983;52.010;5.420;2022-08-21T11:26:59;101639.25;;;22.67;57.93
72110;BME280;59983;52.010;5.420;2022-08-21T11:29:38;101640.84;;;22.68;57.36
72110;BME280;59983;52.010;5.420;2022-08-21T11:35:17;101639.63;;;22.73;57.24
72110;BME280;59983;52.010;5.420;2022-08-21T11:38:23;101644.25;;;22.86;57.21
72110;BME280;59983;52.010;5.420;2022-08-21T11:41:22;101638.59;;;23.01;58.92
72110;BME280;59983;52.010;5.420;2022-08-21T11:44:26;101636.56;;;23.05;55.84
72110;BME280;59983;52.010;5.420;2022-08-21T11:49:53;101638.81;;;23.17;54.95
72110;BME280;59983;52.010;5.420;2022-08-21T11:55:18;101647.06;;;23.21;56.97
72110;BME280;59983;52.010;5.420;2022-08-21T11:58:02;101656.00;;;23.35;55.42
72110;BME280;59983;52.010;5.420;2022-08-21T12:00:39;101660.22;;;23.47;55.63
72110;BME280;59983;52.010;5.420;2022-08-21T12:03:15;101652.75;;;23.44;55.62
72110;BME280;59983;52.010;5.420;2022-08-21T12:05:52;101654.06;;;23.32;54.47
72110;BME280;59983;52.010;5.420;2022-08-21T12:08:41;101658.56;;;23.19;55.24
72110;BME280;59983;52.010;5.420;2022-08-21T12:16:35;101654.16;;;23.25;55.76
72110;BME280;59983;52.010;5.420;2022-08-21T12:19:08;101646.63;;;23.26;54.49
72110;BME280;59983;52.010;5.420;2022-08-21T12:22:08;101641.31;;;23.04;55.69
72110;BME280;59983;52.010;5.420;2022-08-21T12:24:48;101642.56;;;23.00;55.36
72110;BME280;59983;52.010;5.420;2022-08-21T12:27:23;101649.03;;;23.24;58.44
72110;BME280;59983;52.010;5.420;2022-08-21T12:29:56;101650.75;;;23.44;56.82
72110;BME280;59983;52.010;5.420;2022-08-21T12:32:44;101649.00;;;23.58;54.62
72110;BME280;59983;52.010;5.420;2022-08-21T12:35:21;101650.91;;;23.34;54.58
72110;BME280;59983;52.010;5.420;2022-08-21T12:38:14;101654.06;;;23.66;54.08
72110;BME280;59983;52.010;5.420;2022-08-21T12:40:57;101655.81;;;23.84;52.84
72110;BME280;59983;52.010;5.420;2022-08-21T12:43:35;101645.53;;;23.84;54.61
72110;BME280;59983;52.010;5.420;2022-08-21T12:46:03;101651.72;;;23.95;52.10
72110;BME280;59983;52.010;5.420;2022-08-21T12:48:46;101651.41;;;23.90;54.02
72110;BME280;59983;52.010;5.420;2022-08-21T12:51:17;101648.81;;;24.02;52.33
72110;BME280;59983;52.010;5.420;2022-08-21T12:53:50;101644.63;;;24.21;52.81
72110;BME280;59983;52.010;5.420;2022-08-21T12:56:21;101652.97;;;23.91;52.99
72110;BME280;59983;52.010;5.420;2022-08-21T12:58:51;101662.06;;;23.57;54.20
72110;BME280;59983;52.010;5.420;2022-08-21T13:01:30;101663.47;;;23.42;52.69
72110;BME280;59983;52.010;5.420;2022-08-21T13:04:02;101665.44;;;23.41;54.87
72110;BME280;59983;52.010;5.420;2022-08-21T13:06:37;101663.94;;;23.67;53.33
72110;BME280;59983;52.010;5.420;2022-08-21T13:09:08;101661.78;;;23.82;51.63
72110;BME280;59983;52.010;5.420;2022-08-21T13:11:37;101660.50;;;23.60;52.87
72110;BME280;59983;52.010;5.420;2022-08-21T13:14:23;101664.44;;;23.25;53.37
72110;BME280;59983;52.010;5.420;2022-08-21T13:16:54;101668.97;;;23.08;53.74
72110;BME280;59983;52.010;5.420;2022-08-21T13:19:22;101667.91;;;22.95;55.25
72110;BME280;59983;52.010;5.420;2022-08-21T13:21:50;101671.06;;;22.93;55.82
72110;BME280;59983;52.010;5.420;2022-08-21T13:24:30;101660.78;;;22.94;55.04
72110;BME280;59983;52.010;5.420;2022-08-21T13:29:48;101658.09;;;23.58;53.17
72110;BME280;59983;52.010;5.420;2022-08-21T13:32:27;101661.34;;;23.87;54.48
72110;BME280;59983;52.010;5.420;2022-08-21T13:34:56;101655.63;;;23.98;50.36
72110;BME280;59983;52.010;5.420;2022-08-21T13:37:26;101658.41;;;23.98;51.00
72110;BME280;59983;52.010;5.420;2022-08-21T13:39:54;101654.59;;;24.15;51.19
72110;BME280;59983;52.010;5.420;2022-08-21T13:42:21;101659.47;;;24.35;51.56
72110;BME280;59983;52.010;5.420;2022-08-21T13:44:52;101660.41;;;24.51;48.92
72110;BME280;59983;52.010;5.420;2022-08-21T13:47:19;101648.44;;;24.54;48.37
72110;BME280;59983;52.010;5.420;2022-08-21T13:49:47;101651.19;;;24.58;49.08
72110;BME280;59983;52.010;5.420;2022-08-21T13:52:21;101642.38;;;24.63;50.65
72110;BME280;59983;52.010;5.420;2022-08-21T13:54:57;101651.66;;;24.53;49.38
72110;BME280;59983;52.010;5.420;2022-08-21T13:57:30;101658.09;;;24.46;48.56
72110;BME280;59983;52.010;5.420;2022-08-21T14:01:00;101645.94;;;24.40;48.57
72110;BME280;59983;52.010;5.420;2022-08-21T14:03:25;101654.97;;;24.44;48.70
72110;BME280;59983;52.010;5.420;2022-08-21T14:05:52;101645.19;;;24.36;49.42
72110;BME280;59983;52.010;5.420;2022-08-21T14:08:29;101648.38;;;24.08;49.56
72110;BME280;59983;52.010;5.420;2022-08-21T14:10:58;101646.69;;;23.87;49.38
72110;BME280;59983;52.010;5.420;2022-08-21T14:13:45;101644.09;;;24.03;50.80
72110;BME280;59983;52.010;5.420;2022-08-21T14:16:16;101647.13;;;24.12;48.90